Impacts TAF Board INFO
FOR SITUATIONAL AWARENESS. NOT TO BE USED FOR FLIGHT PLANNING PURPOSES.
IDs:

KCLT - Charlotte/Douglas In, NC, US

Issued at 0248 UTC 25 May 2018
Updated at 0507 UTC 25 May 2018
Potential Impact None Slight Moderate High
Time<<26/06Z 26/07Z 26/08Z 26/09Z 26/10Z 26/11Z 26/12Z 26/13Z 26/14Z 26/15Z 26/16Z 26/17Z 26/18Z
Type
VIS
CIG
Cover
FltCat
WX
WDir
WSpd
WGst

Raw TAF
KCLT 250248Z 2503/2606 14006KT P6SM VCSH SCT015 BKN060
  TEMPO 2503/2507 BKN015 OVC060
  FM250700 13004KT 6SM BR VCSH BKN013
  FM250900 12004KT 3SM BR OVC007
  FM251400 14003KT P6SM BKN013
  FM251800 16009KT P6SM BKN060
  PROB30 2518/2524 4SM -TSRA OVC025CB
  FM260000 16006KT P6SM VCSH BKN050


METAR Board
Radar Display
Forecast Discussion

FOR SITUATIONAL AWARENESS. NOT TO BE USED FOR FLIGHT PLANNING PURPOSES.